AirNav   Duncan Aviation - Near you to keep you flying
 
 785 users online  

WV00 Deer Creek Farm Airport
Arbovale, West Virginia, USA

GOING TO ARBOVALE?


FAA INFORMATION EFFECTIVE 01 DECEMBER 2022

Location

FAA Identifier: WV00
Lat/Long: 38-28-15.0000N 079-48-02.0000W
38-28.250000N 079-48.033333W
38.4708333,-79.8005556
(estimated)
Elevation: 2650 ft. / 808 m (estimated)
Variation: 08W (1995)
From city: 2 miles N of ARBOVALE, WV
Time zone: UTC -5 (UTC -4 during Daylight Saving Time)
Zip code: 24915

Airport Operations

Airport use: Private use. Permission required prior to landing
Activation date: 10/1999
Control tower: no
ARTCC: WASHINGTON CENTER
FSS: ELKINS FLIGHT SERVICE STATION [703-724-4288]
Attendance: UNATNDD
Wind indicator: yes
Segmented circle: no

Nearby radio navigation aids

VOR radial/distance  VOR name  Freq  Var
EKNr159/30.1ELKINS VORTAC114.2007W

 
NDB name  Hdg/Dist  Freq  Var  ID
RANDOLPH COUNTY181/25.528407WRQY .-. --.- -.--

Airport Services

Runway Information

Runway 4/22

Dimensions: 3300 x 60 ft. / 1006 x 18 m
Surface: turf, in good condition
RUNWAY 4  RUNWAY 22
Traffic pattern: leftright
Obstructions: 200 ft. gnd, 2500 ft. from runway200 ft. gnd, 2500 ft. from runway

Airport Ownership and Management from official FAA records

Ownership: Privately-owned
Owner: IBEX INVEST
199 GREEN BANK RD
ARBOVALE, WV 24915
Phone (304) 456-4827
Manager: PHILIP DOOLITTLE
281 GREEN BANK RD
ARBOVALE, WV 24915
Phone (304) 456-4827
WORK: 304-456-2281 HOME: 304-456-4827 CELL: 304-940-0069

Additional Remarks

FOR CD CTC WASHINGTON ARTCC AT 703-771-3587.

Instrument Procedures

There are no published instrument procedures at WV00.

Some nearby airports with instrument procedures:

KEKN - Elkins-Randolph County Airport-Jennings Randolph Field (25 nm N)
KHSP - Ingalls Field Airport (31 nm S)
W22 - Upshur County Regional Airport (39 nm NW)
KVBW - Bridgewater Air Park (40 nm E)
48I - Braxton County Airport (42 nm W)
 
Loc | Ops | Rwys | IFR | FBO | Links
Com | Nav | Svcs | Stats | Notes
Area around WV00 (Deer Creek Farm Airport)
 
Road maps at: MapQuest Bing Google
 
Aerial photo
WARNING: Photo may not be current or correct
Aerial photo of WV00 (Deer Creek Farm Airport)
Do you have a better or more recent aerial photo of Deer Creek Farm Airport that you would like to share? If so, please send us your photo.

 
Sectional chart

 
Airport distance calculator
Flying to Deer Creek Farm Airport? Find the distance to fly.

From to WV00

Sunrise and sunset
Times for 08-Dec-2022
 Local
(UTC-5)
 Zulu
(UTC)
Morning civil twilight06:5611:56
Sunrise07:2512:25
Sunset16:5721:57
Evening civil twilight17:2722:27

Current date and time
Zulu (UTC)  08-Dec-2022 05:44:07
Local (UTC-5)  08-Dec-2022 00:44:07
 
METAR
KEKN 
25nm N 
080451Z AUTO 31005KT 10SM OVC016 11/09 A3028 RMK AO2 SLP256 T01110089 401720061
KHSP 
31nm S 
080535Z AUTO 28012KT 5SM HZ SCT002 BKN011 BKN016 A3025 RMK AO2
KW22 
39nm NW 
080515Z AUTO 00000KT 9SM BKN014 OVC023 11/10 A3028 RMK AO2
KVBW 
40nm E 
080535Z AUTO 00000KT 1/4SM OVC002 08/08 A3021 RMK AO1 T00750075
KW99 
44nm NE 
080446Z AUTO 30011KT 10SM SCT036 16/11 A3022 RMK AO2
KSHD 
44nm E 
080535Z AUTO 00000KT 1/4SM FG OVC002 09/09 A3023 RMK AO2 T00860086
KLWB 
46nm SW 
080515Z AUTO 00000KT 10SM OVC035 12/11 A3027 RMK AO2 T01240105
KW13 
47nm SE 
080535Z AUTO 00000KT 10SM CLR 13/12 A3021 RMK AO1 T01330116
TAF
KEKN 
25nm N 
080235Z 0803/0824 32005KT P6SM BKN009 OVC012 FM080900 00000KT 3SM BR OVC006 FM081300 00000KT 5SM BR OVC013 FM081800 00000KT P6SM BKN035
NOTAMs
Click for the latest NOTAMs
NOTAMs are issued by the DoD/FAA and will open in a separate window not controlled by AirNav.

 

 
 

Would you like to see your business listed on this page?

 If your business provides an interesting product or service to pilots, flight crews, aircraft, or users of the Deer Creek Farm Airport, you should consider listing it here.  To start the listing process, click on the button below
 
Add a business
 

Other Pages about Deer Creek Farm Airport

Update a link
 
Copyright © AirNav, LLC. All rights reserved. Privacy Policy  Contact